Time;durP1;ratioP1;P1;durP2;ratioP2;P2;SDS_P1;SDS_P2;PMS_P1;PMS_P2;Temp;Humidity;BMP_temperature;BMP_pressure;BME280_temperature;BME280_humidity;BME280_pressure;Samples;Min_cycle;Max_cycle;Signal;HPM_P1;HPM_P2
2021/08/21 00:02:30;;;;;;;1.65;1.38;;;17.70;78.00;;;20.58;64.03;101799.28;3189363;30;132578;-74
2021/08/21 00:05:39;;;;;;;9.52;2.80;;;17.70;78.10;;;20.52;64.35;101799.09;3189963;38;131524;-74
2021/08/21 00:08:45;;;;;;;2.03;1.77;;;17.60;78.10;;;20.43;64.26;101804.66;3189354;38;129731;-74
2021/08/21 00:11:51;;;;;;;1.20;1.05;;;17.50;78.30;;;20.38;64.37;101796.72;3188680;38;129740;-74
2021/08/21 00:14:56;;;;;;;1.00;0.98;;;17.50;78.30;;;20.31;64.34;101801.13;3189173;38;129877;-74
2021/08/21 00:18:05;;;;;;;1.25;0.90;;;17.40;78.30;;;20.29;64.56;101795.22;3189562;38;130324;-74
2021/08/21 00:21:14;;;;;;;1.00;1.00;;;17.30;78.30;;;20.21;64.30;101796.94;3188439;38;131596;-74
2021/08/21 00:24:20;;;;;;;1.85;1.00;;;17.30;78.40;;;20.20;64.38;101797.28;3188771;38;130425;-74
2021/08/21 00:27:27;;;;;;;1.35;0.75;;;17.20;78.40;;;20.17;64.29;101795.25;3189691;38;131259;-74
2021/08/21 00:30:33;;;;;;;1.30;1.20;;;17.20;78.50;;;20.16;64.30;101797.16;3189713;38;130891;-74
2021/08/21 00:33:47;;;;;;;1.17;1.08;;;17.10;78.90;;;20.16;64.13;101799.09;3189462;38;130754;-74
2021/08/21 00:36:56;;;;;;;1.10;1.10;;;17.10;78.60;;;20.18;64.02;101794.09;3190197;38;130757;-74
2021/08/21 00:40:01;;;;;;;3.60;1.58;;;17.10;78.60;;;20.23;63.91;101802.81;3189826;38;131580;-74
2021/08/21 00:43:16;;;;;;;0.85;0.52;;;17.10;78.60;;;20.20;63.92;101798.06;3189980;30;130037;-74
2021/08/21 00:46:22;;;;;;;1.15;1.13;;;17.10;78.60;;;20.24;63.67;101801.69;3189619;30;129876;-74
2021/08/21 00:49:29;;;;;;;2.20;0.80;;;17.10;78.60;;;20.27;63.45;101792.88;3190067;30;130889;-74
2021/08/21 00:52:38;;;;;;;1.00;0.95;;;17.10;78.50;;;20.21;63.67;101790.72;3191319;30;130703;-74
2021/08/21 00:55:45;;;;;;;0.28;0.28;;;17.10;78.50;;;20.17;63.68;101803.41;3189011;30;130309;-74
2021/08/21 00:58:51;;;;;;;0.82;0.82;;;17.10;78.40;;;20.11;63.88;101793.84;3190470;38;131510;-74
2021/08/21 01:01:58;;;;;;;1.27;1.02;;;17.00;78.30;;;20.03;64.01;101790.13;3188766;30;129921;-74
2021/08/21 01:05:13;;;;;;;1.50;1.08;;;17.00;78.40;;;19.94;64.14;101794.84;3187586;38;130572;-74
2021/08/21 01:08:22;;;;;;;1.10;1.10;;;16.90;78.40;;;19.90;64.04;101787.72;3187116;38;130956;-74
2021/08/21 01:11:43;;;;;;;1.85;0.63;;;16.90;78.40;;;19.79;64.11;101784.63;3189949;38;129870;-74
2021/08/21 01:14:52;;;;;;;3.80;1.15;;;16.80;78.40;;;19.80;64.23;101782.69;3189197;38;130718;-74
2021/08/21 01:17:59;;;;;;;0.55;0.55;;;16.80;78.50;;;19.71;64.31;101785.53;3189635;38;129753;-74
2021/08/21 01:21:06;;;;;;;1.02;0.52;;;16.70;78.50;;;19.71;64.32;101784.72;3188428;38;131013;-74
2021/08/21 01:24:15;;;;;;;1.63;1.52;;;16.70;78.60;;;19.67;64.19;101784.63;3188151;30;130814;-74
2021/08/21 01:27:27;;;;;;;0.63;0.60;;;16.60;78.70;;;19.65;64.16;101786.84;3188346;38;130397;-74
2021/08/21 01:30:55;;;;;;;0.63;0.63;;;16.60;78.70;;;19.71;64.03;101785.53;3190091;38;129697;-74
2021/08/21 01:34:05;;;;;;;1.92;0.60;;;16.60;78.70;;;19.63;64.01;101791.03;3189047;38;130374;-74
2021/08/21 01:37:13;;;;;;;0.20;0.20;;;16.60;78.70;;;19.58;63.99;101789.31;3187776;38;129913;-74
2021/08/21 01:40:27;;;;;;;0.25;0.25;;;16.60;78.60;;;19.53;64.03;101789.53;3189149;30;130239;-74
2021/08/21 01:43:37;;;;;;;0.10;0.10;;;16.60;78.70;;;19.47;64.38;101781.94;3189578;31;130879;-73
2021/08/21 01:46:46;;;;;;;0.80;0.80;;;16.50;78.70;;;19.43;64.11;101787.25;3188856;38;129814;-73
2021/08/21 01:49:56;;;;;;;0.55;0.55;;;16.40;78.70;;;19.36;64.42;101795.13;3189716;38;129749;-73
2021/08/21 01:53:02;;;;;;;2.15;1.30;;;16.40;78.70;;;19.42;64.18;101793.81;3189148;30;129878;-73
2021/08/21 01:56:15;;;;;;;0.20;0.20;;;16.40;78.70;;;19.40;64.35;101795.28;3189260;38;129958;-73
2021/08/21 01:59:37;;;;;;;0.55;0.55;;;16.40;78.80;;;19.36;64.03;101791.66;3189224;30;130771;-73
2021/08/21 02:02:48;;;;;;;4.22;1.27;;;16.30;78.80;;;19.36;64.29;101791.66;3188484;38;130837;-73
2021/08/21 02:05:58;;;;;;;5.22;0.70;;;16.30;78.80;;;19.41;63.85;101794.16;3188459;38;130030;-73
2021/08/21 02:09:04;;;;;;;0.57;0.57;;;16.30;78.80;;;19.39;64.08;101791.78;3189085;38;129931;-73
2021/08/21 02:12:12;;;;;;;1.05;0.80;;;16.30;78.80;;;19.33;63.98;101792.31;3188663;38;130956;-73
2021/08/21 02:15:25;;;;;;;0.90;0.65;;;16.30;78.80;;;19.39;63.71;101793.69;3188862;38;130338;-73
2021/08/21 02:18:35;;;;;;;1.10;1.00;;;16.30;78.90;;;19.40;64.08;101795.28;3189171;30;130787;-73
2021/08/21 02:21:48;;;;;;;0.50;0.50;;;16.30;78.80;;;19.36;63.90;101792.41;3188760;38;130807;-73
2021/08/21 02:24:55;;;;;;;1.58;1.48;;;16.20;78.70;;;19.35;63.92;101793.56;3189590;38;130491;-73
2021/08/21 02:28:07;;;;;;;0.10;0.10;;;16.30;78.80;;;19.34;64.02;101785.75;3189178;30;131357;-73
2021/08/21 02:31:15;;;;;;;0.63;0.63;;;16.30;78.80;;;19.31;64.01;101780.97;3188944;38;130354;-73
2021/08/21 02:34:21;;;;;;;1.25;0.63;;;16.20;78.80;;;19.30;64.13;101790.25;3188118;38;130202;-73
2021/08/21 02:37:27;;;;;;;0.10;0.10;;;16.20;78.70;;;19.16;64.36;101792.47;3188956;38;132219;-73
2021/08/21 02:40:34;;;;;;;0.43;0.38;;;16.20;78.70;;;19.21;64.14;101795.78;3192616;30;129692;-73
2021/08/21 02:43:40;;;;;;;0.50;0.50;;;16.10;78.80;;;19.18;64.15;101787.47;3192614;38;130099;-73
2021/08/21 02:46:50;;;;;;;0.57;0.52;;;16.10;78.80;;;19.11;64.10;101787.19;3195671;30;130832;-73
2021/08/21 02:49:55;;;;;;;0.10;0.10;;;16.10;78.80;;;19.15;64.05;101788.13;3189752;38;130684;-73
2021/08/21 02:53:02;;;;;;;0.20;0.20;;;16.00;78.80;;;19.03;64.48;101785.34;3188313;38;130633;-73
2021/08/21 02:56:09;;;;;;;1.00;0.75;;;16.00;78.80;;;18.96;64.30;101785.88;3187339;38;129880;-73
2021/08/21 02:59:15;;;;;;;0.70;0.70;;;16.00;78.90;;;18.93;64.32;101781.13;3187665;38;129749;-72
2021/08/21 03:02:24;;;;;;;0.77;0.50;;;15.90;78.80;;;18.95;64.18;101784.28;3188793;30;129762;-73
2021/08/21 03:05:32;;;;;;;0.47;0.40;;;15.90;78.90;;;18.94;64.33;101787.34;3189408;30;130621;-73
2021/08/21 03:08:39;;;;;;;0.57;0.50;;;15.90;79.10;;;18.91;64.36;101784.50;3189791;30;130633;-73
2021/08/21 03:11:45;;;;;;;0.50;0.50;;;15.90;79.00;;;18.88;64.61;101785.94;3188775;38;130345;-73
2021/08/21 03:15:08;;;;;;;0.85;0.65;;;15.90;79.00;;;18.88;64.17;101785.94;3189330;30;129906;-73
2021/08/21 03:18:17;;;;;;;0.30;0.30;;;15.80;79.00;;;18.81;64.53;101787.63;3188432;30;129746;-73
2021/08/21 03:21:28;;;;;;;0.10;0.10;;;15.80;79.00;;;18.74;64.53;101793.56;3187008;38;131437;-73
2021/08/21 03:24:34;;;;;;;0.30;0.30;;;15.80;78.90;;;18.70;64.59;101786.41;3189231;38;131556;-73
2021/08/21 03:27:40;;;;;;;0.40;0.40;;;15.70;79.50;;;18.64;64.68;101788.53;3189331;30;130213;-73
2021/08/21 03:30:46;;;;;;;0.10;0.10;;;15.60;78.90;;;18.63;64.52;101788.84;3189011;38;130849;-73
2021/08/21 03:34:00;;;;;;;0.50;0.50;;;15.70;79.00;;;18.63;64.45;101786.94;3188228;38;132169;-73
2021/08/21 03:37:08;;;;;;;0.75;0.57;;;15.60;79.00;;;18.65;64.24;101787.41;3188637;38;130326;-73
2021/08/21 03:40:18;;;;;;;0.10;0.10;;;15.60;79.00;;;18.65;64.32;101787.41;3187551;38;131358;-73
2021/08/21 03:43:40;;;;;;;0.20;0.20;;;15.60;79.10;;;18.65;64.35;101790.13;3186991;38;131183;-73
2021/08/21 03:46:46;;;;;;;0.82;0.57;;;15.60;79.00;;;18.63;64.49;101792.38;3189101;38;130766;-73
2021/08/21 03:49:55;;;;;;;0.30;0.30;;;15.60;79.10;;;18.65;64.27;101794.75;3188977;38;130807;-73
2021/08/21 03:53:00;;;;;;;0.17;0.17;;;15.60;79.20;;;18.71;64.14;101804.28;3187722;38;130352;-73
2021/08/21 03:56:08;;;;;;;0.30;0.30;;;15.60;79.20;;;18.77;64.19;101800.28;3188022;30;130795;-73
2021/08/21 03:59:20;;;;;;;0.10;0.10;;;15.60;79.10;;;18.75;63.95;101805.22;3187707;38;131576;-74
2021/08/21 04:02:30;;;;;;;0.43;0.43;;;15.60;79.00;;;18.72;64.25;101801.25;3192689;30;131158;-73
2021/08/21 04:05:38;;;;;;;0.10;0.10;;;15.60;79.10;;;18.79;63.86;101801.53;3190686;31;130073;-73
2021/08/21 04:08:45;;;;;;;0.20;0.20;;;15.60;79.10;;;18.86;63.98;101801.78;3189143;38;129868;-73
2021/08/21 04:12:00;;;;;;;0.63;0.63;;;15.60;79.00;;;18.85;63.66;101802.91;3188978;38;130773;-73
2021/08/21 04:15:15;;;;;;;0.52;0.52;;;15.60;78.90;;;18.88;63.87;101794.09;3188894;38;129760;-73
2021/08/21 04:18:21;;;;;;;0.47;0.47;;;15.60;79.00;;;18.88;63.77;101796.03;3188322;38;129809;-73
2021/08/21 04:21:30;;;;;;;0.75;0.57;;;15.70;79.10;;;18.89;63.87;101794.91;3189213;30;129750;-73
2021/08/21 04:24:35;;;;;;;0.45;0.45;;;15.70;79.00;;;18.87;63.88;101797.16;3188615;38;130794;-73
2021/08/21 04:27:43;;;;;;;1.08;0.73;;;15.70;79.00;;;18.83;63.83;101797.00;3186925;38;130795;-73
2021/08/21 04:30:49;;;;;;;1.23;0.90;;;15.70;78.90;;;18.80;64.12;101803.09;3189394;38;129694;-73
2021/08/21 04:33:56;;;;;;;0.10;0.10;;;15.70;78.90;;;18.79;64.17;101806.94;3185671;38;131864;-73
2021/08/21 04:37:09;;;;;;;0.77;0.55;;;15.70;78.90;;;18.77;64.03;101809.19;3187354;38;130105;-73
2021/08/21 04:40:20;;;;;;;0.20;0.20;;;15.70;78.80;;;18.79;63.86;101806.16;3188089;30;130734;-73
2021/08/21 04:43:28;;;;;;;0.75;0.75;;;15.70;78.90;;;18.80;64.19;101813.19;3187939;38;130170;-73
2021/08/21 04:46:36;;;;;;;4.95;0.55;;;15.70;78.90;;;18.85;63.89;101815.72;3189651;38;129886;-73
2021/08/21 04:49:41;;;;;;;1.23;0.32;;;15.60;78.80;;;18.93;63.83;101818.38;3188109;38;130225;-73
2021/08/21 04:52:51;;;;;;;0.20;0.20;;;15.70;78.90;;;18.96;63.63;101818.47;3189699;38;130836;-73
2021/08/21 04:55:58;;;;;;;0.10;0.10;;;15.70;78.80;;;19.00;63.47;101818.63;3187213;38;130952;-73
2021/08/21 04:59:07;;;;;;;0.15;0.15;;;15.80;78.80;;;19.03;63.21;101812.53;3188906;38;129969;-73
2021/08/21 05:02:13;;;;;;;0.30;0.30;;;15.80;78.70;;;19.10;63.07;101820.94;3188491;38;130690;-73
2021/08/21 05:05:21;;;;;;;0.20;0.20;;;15.80;78.70;;;19.17;62.99;101829.38;3189305;38;130920;-73
2021/08/21 05:08:30;;;;;;;0.20;0.20;;;15.80;78.60;;;19.22;62.92;101827.25;3188830;38;132572;-73
2021/08/21 05:11:36;;;;;;;0.63;0.63;;;15.90;78.60;;;19.28;62.79;101831.34;3189893;30;131538;-73
2021/08/21 05:14:43;;;;;;;0.30;0.30;;;16.00;78.50;;;19.46;62.70;101819.22;3189865;30;130435;-73
2021/08/21 05:17:51;;;;;;;0.25;0.25;;;16.00;78.40;;;19.65;62.25;101826.84;3187938;38;131023;-73
2021/08/21 05:21:12;;;;;;;0.45;0.45;;;16.10;78.20;;;19.77;61.81;101824.97;3188878;38;131001;-73
2021/08/21 05:24:21;;;;;;;0.43;0.43;;;16.20;78.00;;;19.86;61.78;101825.66;3189244;38;131583;-73
2021/08/21 05:27:28;;;;;;;0.45;0.25;;;16.30;78.00;;;19.98;61.51;101827.59;3189840;30;130287;-73
2021/08/21 05:30:38;;;;;;;0.28;0.28;;;16.50;77.90;;;20.02;61.71;101828.56;3189012;38;130558;-73
2021/08/21 05:33:48;;;;;;;2.37;0.57;;;16.50;77.70;;;20.16;61.50;101831.75;3189629;30;131212;-73
2021/08/21 05:36:55;;;;;;;0.30;0.30;;;16.60;77.60;;;20.27;61.36;101822.81;3189923;38;130091;-73
2021/08/21 05:40:07;;;;;;;0.30;0.30;;;16.70;77.60;;;20.25;61.34;101825.06;3189084;38;132319;-73
2021/08/21 05:43:14;;;;;;;0.35;0.35;;;16.70;77.50;;;20.17;61.61;101819.75;3189276;30;130155;-73
2021/08/21 05:46:20;;;;;;;0.77;0.73;;;16.70;77.50;;;20.18;61.57;101829.50;3187928;38;131791;-74
2021/08/21 05:49:26;;;;;;;1.17;1.00;;;16.70;77.40;;;20.19;61.45;101831.06;3189160;38;129796;-73
2021/08/21 05:52:32;;;;;;;0.80;0.80;;;16.70;77.30;;;20.33;61.29;101835.06;3188193;38;130213;-73
2021/08/21 05:55:40;;;;;;;0.10;0.10;;;16.80;78.00;;;20.45;61.04;101835.03;3187128;38;130513;-73
2021/08/21 05:58:49;;;;;;;0.10;0.10;;;16.80;77.20;;;20.90;60.09;101839.22;3188417;38;130754;-73
2021/08/21 06:01:55;;;;;;;1.45;0.65;;;17.10;77.10;;;21.17;59.76;101838.47;3189343;38;131318;-74
2021/08/21 06:05:01;;;;;;;0.15;0.15;;;17.30;76.80;;;21.44;59.17;101834.97;3189529;38;129680;-74
2021/08/21 06:08:09;;;;;;;0.43;0.43;;;17.50;76.60;;;21.68;58.69;101832.16;3189278;30;130016;-73
2021/08/21 06:11:21;;;;;;;2.15;1.30;;;17.70;76.40;;;22.00;58.21;101831.06;3188854;30;129987;-74
2021/08/21 06:14:27;;;;;;;0.73;0.73;;;17.90;76.10;;;21.97;58.76;101826.31;3190516;38;130527;-74
2021/08/21 06:17:33;;;;;;;3.53;2.33;;;18.00;76.00;;;22.18;58.56;101823.31;3191200;30;131516;-74
2021/08/21 06:20:39;;;;;;;0.75;0.75;;;18.20;76.00;;;22.36;58.38;101833.50;3188487;38;130736;-73
2021/08/21 06:23:45;;;;;;;0.57;0.57;;;18.30;75.90;;;22.51;58.16;101830.78;3188995;30;129789;-74
2021/08/21 06:26:54;;;;;;;0.52;0.52;;;18.40;75.80;;;22.62;57.92;101831.03;3189645;30;129991;-73
2021/08/21 06:29:59;;;;;;;0.38;0.38;;;18.60;75.80;;;22.84;58.13;101813.97;3189306;30;130656;-74
2021/08/21 06:33:07;;;;;;;2.60;0.88;;;18.80;75.60;;;23.11;57.68;101824.75;3189602;38;130435;-74
2021/08/21 06:36:13;;;;;;;0.52;0.52;;;19.00;75.50;;;23.08;57.73;101832.81;3190639;30;130658;-74
2021/08/21 06:39:19;;;;;;;0.60;0.60;;;19.10;75.90;;;23.37;57.73;101832.28;3189379;38;129979;-74
2021/08/21 06:42:27;;;;;;;0.20;0.20;;;19.20;75.30;;;23.72;56.99;101830.22;3188625;38;131617;-74
2021/08/21 06:45:48;;;;;;;0.73;0.65;;;19.50;75.70;;;23.39;58.32;101827.25;3189371;30;131201;-74
2021/08/21 06:48:53;;;;;;;1.02;1.02;;;19.50;75.20;;;23.22;59.05;101830.44;3189891;38;130851;-74
2021/08/21 06:51:59;;;;;;;1.08;0.98;;;19.40;75.40;;;23.47;58.39;101831.72;3188597;38;130959;-74
2021/08/21 06:55:08;;;;;;;4.65;2.70;;;19.50;75.50;;;23.55;58.14;101836.16;3187846;38;131035;-74
2021/08/21 06:58:17;;;;;;;3.25;1.10;;;19.60;75.50;;;23.61;58.43;101843.72;3188454;38;130790;-74
2021/08/21 07:01:22;;;;;;;0.32;0.30;;;19.70;75.60;;;23.58;58.99;101840.91;3189826;38;129680;-74
2021/08/21 07:04:29;;;;;;;0.38;0.38;;;19.80;75.60;;;23.78;58.42;101845.22;3189850;30;130905;-74
2021/08/21 07:07:35;;;;;;;1.58;1.48;;;19.80;75.50;;;24.36;57.16;101850.97;3192217;30;130770;-74
2021/08/21 07:10:42;;;;;;;4.80;1.10;;;20.10;75.40;;;24.54;57.15;101849.31;3189843;38;130823;-74
2021/08/21 07:13:50;;;;;;;0.52;0.52;;;20.30;75.20;;;24.86;56.73;101845.06;3187828;38;130436;-74
2021/08/21 07:16:56;;;;;;;0.85;0.85;;;20.50;74.90;;;25.18;56.26;101845.53;3190036;30;129852;-74
2021/08/21 07:20:02;;;;;;;1.88;1.55;;;20.80;74.70;;;25.14;56.88;101842.72;3189924;38;131644;-74
2021/08/21 07:23:11;;;;;;;3.08;1.23;;;21.00;74.60;;;25.26;57.31;101850.75;3190256;30;130372;-74
2021/08/21 07:26:16;;;;;;;0.63;0.43;;;21.10;74.60;;;25.38;56.84;101850.50;3189609;30;129698;-74
2021/08/21 07:29:26;;;;;;;1.60;0.85;;;21.20;74.60;;;25.83;55.82;101850.25;3188638;38;129997;-75
2021/08/21 07:32:32;;;;;;;2.25;1.77;;;21.40;74.40;;;25.97;55.66;101842.13;3188788;38;131017;-74
2021/08/21 07:35:38;;;;;;;1.42;1.33;;;21.50;74.20;;;25.83;56.27;101853.78;3189598;38;130339;-74
2021/08/21 07:38:44;;;;;;;1.77;1.42;;;21.60;74.30;;;25.41;57.60;101857.97;3188958;30;130085;-75
2021/08/21 07:41:50;;;;;;;1.05;0.65;;;21.50;74.40;;;25.05;58.68;101861.41;3190980;30;130280;-74
2021/08/21 07:44:58;;;;;;;1.73;1.30;;;21.40;74.80;;;24.84;59.21;101858.38;3189680;38;130000;-74
2021/08/21 07:48:05;;;;;;;0.60;0.47;;;21.20;75.10;;;24.82;59.19;101865.41;3188632;38;131206;-74
2021/08/21 07:51:11;;;;;;;1.95;1.05;;;21.20;75.40;;;24.78;59.36;101865.34;3188295;38;129826;-75
2021/08/21 07:54:17;;;;;;;2.08;1.48;;;21.10;75.40;;;24.86;59.12;101871.72;3188583;30;131871;-75
2021/08/21 07:57:24;;;;;;;4.28;1.25;;;21.10;75.60;;;24.95;59.07;101866.75;3188037;30;131971;-75
2021/08/21 08:00:33;;;;;;;5.38;1.65;;;21.10;75.70;;;24.87;59.19;101867.81;3186634;38;131226;-75
2021/08/21 08:03:39;;;;;;;2.85;1.55;;;21.10;75.70;;;24.74;59.55;101864.50;3185843;38;130464;-75
2021/08/21 08:06:45;;;;;;;1.10;0.98;;;21.10;76.40;;;24.73;59.48;101873.09;3188375;38;130312;-75
2021/08/21 08:09:50;;;;;;;2.53;2.33;;;21.00;75.90;;;24.95;59.11;101862.06;3188651;38;129570;-75
2021/08/21 08:12:56;;;;;;;1.70;1.50;;;21.00;76.00;;;25.52;57.86;101869.88;3188169;38;131680;-75
2021/08/21 08:16:06;;;;;;;2.95;0.63;;;21.30;75.70;;;26.51;55.49;101858.72;3191333;30;130660;-75
2021/08/21 08:19:12;;;;;;;1.02;0.95;;;21.60;75.40;;;26.53;56.21;101862.66;3191737;30;129759;-75
2021/08/21 08:22:19;;;;;;;2.38;2.17;;;22.00;74.80;;;26.70;55.97;101855.69;3192682;38;129725;-75
2021/08/21 08:25:26;;;;;;;6.32;2.50;;;22.20;74.70;;;26.62;56.21;101863.13;3190510;38;130773;-75
2021/08/21 08:28:31;;;;;;;3.58;1.73;;;22.30;74.40;;;27.95;53.48;101856.25;3189705;38;129946;-75
2021/08/21 08:31:40;;;;;;;4.82;1.77;;;22.60;74.10;;;29.98;49.35;101855.72;3188388;38;129854;-75
2021/08/21 08:34:46;;;;;;;2.35;1.77;;;23.40;73.50;;;28.57;53.91;101865.75;3189787;38;131706;-76
2021/08/21 08:37:53;;;;;;;2.08;1.42;;;23.70;73.20;;;27.86;55.38;101866.09;3188781;38;130175;-75
2021/08/21 08:41:05;;;;;;;4.20;2.50;;;23.60;73.30;;;28.31;54.70;101866.16;3191951;38;130055;-75
2021/08/21 08:44:15;;;;;;;4.00;2.28;;;23.60;74.10;;;29.02;53.28;101867.63;3189707;38;131259;-75
2021/08/21 08:47:23;;;;;;;1.98;1.30;;;23.90;73.50;;;30.12;51.42;101866.72;3189197;38;129876;-75
2021/08/21 08:50:31;;;;;;;5.57;2.13;;;24.30;73.20;;;34.41;42.90;101863.22;3186152;38;130877;-75
2021/08/21 08:53:37;;;;;;;3.30;2.40;;;25.10;73.00;;;38.02;38.42;101856.28;3185966;38;130344;-76
2021/08/21 08:56:44;;;;;;;3.35;2.47;;;26.60;72.80;;;36.07;43.37;101860.78;3185424;38;130404;-75
2021/08/21 08:59:50;;;;;;;3.42;2.25;;;27.70;71.80;;;33.41;49.74;101863.59;3187202;38;130742;-73
2021/08/21 09:03:03;;;;;;;3.67;2.42;;;28.00;71.70;;;33.33;50.65;101862.16;3186595;38;131369;-73
2021/08/21 09:06:14;;;;;;;3.78;1.25;;;27.80;71.80;;;33.50;50.66;101866.56;3188594;38;129687;-73
2021/08/21 09:09:23;;;;;;;2.20;2.00;;;27.90;72.20;;;34.92;47.34;101864.25;3188486;38;130760;-75
2021/08/21 09:12:28;;;;;;;4.57;2.15;;;27.90;72.40;;;34.94;48.09;101859.00;3186821;38;131052;-73
2021/08/21 09:15:37;;;;;;;2.55;1.50;;;28.20;72.40;;;35.53;47.07;101862.84;3187653;38;130815;-73
2021/08/21 09:18:47;;;;;;;2.70;1.38;;;28.30;71.80;;;35.93;45.79;101862.00;3187946;30;130067;-74
2021/08/21 09:22:06;;;;;;;3.28;2.70;;;28.40;72.30;;;38.28;41.90;101868.81;3187340;38;129778;-75
2021/08/21 09:25:13;;;;;;;5.05;2.33;;;28.90;72.80;;;36.60;46.47;101856.97;3188670;38;131371;-74
2021/08/21 09:28:22;;;;;;;2.95;1.33;;;29.50;72.80;;;35.04;50.61;101847.56;3186801;30;130015;-74
2021/08/21 09:31:32;;;;;;;2.15;1.98;;;29.50;72.60;;;35.83;49.53;101853.97;3188691;38;130039;-74
2021/08/21 09:34:42;;;;;;;2.15;1.25;;;29.60;72.60;;;37.44;46.09;101851.06;3187862;38;130788;-74
2021/08/21 09:37:52;;;;;;;6.50;1.45;;;29.80;72.50;;;38.81;44.04;101853.31;3188961;38;130865;-74
2021/08/21 09:41:09;;;;;;;1.52;1.17;;;30.40;72.60;;;39.75;42.80;101850.91;3186552;38;130016;-75
2021/08/21 09:44:15;;;;;;;1.02;0.85;;;31.10;72.30;;;38.21;47.00;101857.91;3190212;38;130712;-74
2021/08/21 09:47:26;;;;;;;3.38;2.03;;;31.60;72.00;;;36.57;50.89;101846.69;3191814;38;130851;-74
2021/08/21 09:50:40;;;;;;;2.58;2.38;;;31.50;71.70;;;35.72;52.91;101847.94;3190000;38;131251;-74
2021/08/21 09:53:46;;;;;;;3.47;1.98;;;31.20;71.80;;;35.91;51.71;101846.91;3190004;38;129908;-74
2021/08/21 09:56:57;;;;;;;3.22;1.45;;;30.90;71.90;;;37.15;49.16;101842.97;3188184;38;131074;-74
2021/08/21 10:00:06;;;;;;;5.95;2.72;;;31.10;71.90;;;37.32;49.26;101832.34;3187204;38;130247;-75
2021/08/21 10:03:19;;;;;;;3.03;1.75;;;31.30;72.10;;;36.90;51.00;101831.13;3187622;30;130487;-75
2021/08/21 10:06:29;;;;;;;2.85;2.08;;;31.50;72.30;;;36.28;52.58;101823.75;3189773;38;129270;-74
2021/08/21 10:09:38;;;;;;;1.35;0.82;;;31.40;72.40;;;35.97;53.38;101831.97;3189211;38;129877;-74
2021/08/21 10:12:47;;;;;;;4.40;1.48;;;31.20;72.50;;;36.25;53.04;101819.88;3188996;38;129884;-75
2021/08/21 10:15:54;;;;;;;7.05;1.40;;;31.30;72.90;;;36.56;52.62;101826.38;3190530;30;129788;-74
2021/08/21 10:19:05;;;;;;;2.78;1.05;;;31.50;73.20;;;36.48;52.97;101821.47;3188692;38;130825;-74
2021/08/21 10:22:14;;;;;;;1.95;1.38;;;31.60;73.10;;;36.63;52.82;101828.13;3189366;30;130115;-74
2021/08/21 10:25:20;;;;;;;5.63;1.98;;;31.70;72.90;;;36.22;54.13;101823.56;3190373;38;131356;-74
2021/08/21 10:28:32;;;;;;;1.42;1.13;;;31.60;72.70;;;36.44;52.69;101823.59;3189341;30;129663;-74
2021/08/21 10:31:47;;;;;;;2.95;1.35;;;31.60;72.70;;;36.24;53.59;101818.31;3188921;38;130316;-74
2021/08/21 10:34:56;;;;;;;3.25;2.25;;;31.60;72.50;;;36.00;54.04;101819.09;3191360;30;130732;-74
2021/08/21 10:38:05;;;;;;;1.95;0.88;;;31.50;72.40;;;35.91;53.71;101821.81;3188241;38;130036;-74
2021/08/21 10:41:37;;;;;;;14.23;1.23;;;31.40;72.40;;;36.23;53.14;101811.16;3189081;38;130169;-74
2021/08/21 10:44:50;;;;;;;1.45;1.35;;;31.30;72.30;;;36.29;52.59;101808.56;3190863;38;130742;-74
2021/08/21 10:47:56;;;;;;;4.93;1.38;;;31.40;72.40;;;36.25;53.08;101819.06;3189782;30;131609;-74
2021/08/21 10:51:04;;;;;;;0.82;0.68;;;31.40;72.20;;;36.32;53.10;101816.03;3187781;38;131179;-74
2021/08/21 10:54:49;;;;;;;0.65;0.40;;;31.50;72.30;;;36.26;52.89;101812.25;3187182;38;130384;-74
2021/08/21 10:58:09;;;;;;;1.00;0.90;;;31.40;71.90;;;36.22;52.75;101815.19;3186751;38;130780;-74
2021/08/21 11:01:25;;;;;;;0.38;0.38;;;31.40;72.30;;;36.18;52.58;101819.31;3190266;30;130311;-75
2021/08/21 11:04:37;;;;;;;2.92;1.10;;;31.50;71.60;;;36.24;52.93;101825.91;3188060;38;130318;-75
2021/08/21 11:07:43;;;;;;;2.75;1.38;;;31.50;71.80;;;36.36;52.57;101819.50;3188606;30;130757;-75
2021/08/21 11:11:26;;;;;;;1.13;0.70;;;31.60;71.60;;;36.44;51.87;101821.56;3190010;30;129885;-75
2021/08/21 11:14:40;;;;;;;2.15;1.27;;;31.70;71.20;;;36.17;52.81;101814.97;3191647;38;129699;-74
2021/08/21 11:17:48;;;;;;;2.08;0.82;;;31.70;71.20;;;35.85;53.51;101812.44;3189348;38;129868;-75
2021/08/21 11:20:54;;;;;;;2.58;1.05;;;31.50;71.50;;;36.05;52.79;101813.75;3187699;38;129971;-74
2021/08/21 11:24:01;;;;;;;1.55;0.68;;;31.50;71.60;;;36.18;52.55;101799.78;3188809;38;130241;-74
2021/08/21 11:27:44;;;;;;;1.80;1.27;;;31.50;71.50;;;36.18;52.60;101803.38;3187469;30;129900;-73
2021/08/21 11:31:13;;;;;;;1.05;0.93;;;31.50;71.20;;;36.08;53.21;101792.56;3186791;30;130453;-76
2021/08/21 11:34:20;;;;;;;0.88;0.68;;;31.60;71.30;;;36.03;52.81;101798.66;3188912;31;129833;-76
2021/08/21 11:37:29;;;;;;;4.80;1.58;;;31.60;71.40;;;35.89;53.23;101798.38;3189695;30;132102;-75
2021/08/21 11:40:41;;;;;;;1.45;1.02;;;31.50;71.30;;;35.86;52.99;101797.25;3188254;30;131095;-76
2021/08/21 11:43:50;;;;;;;0.38;0.38;;;31.40;71.30;;;35.78;53.12;101795.16;3188979;38;130748;-74
2021/08/21 11:47:09;;;;;;;1.48;1.13;;;31.40;71.30;;;35.88;53.43;101785.63;3190033;30;130764;-74
2021/08/21 11:50:30;;;;;;;6.78;1.40;;;31.30;71.30;;;35.88;53.21;101772.47;3189890;38;129884;-74
2021/08/21 11:53:42;;;;;;;1.48;1.00;;;31.40;71.20;;;35.72;53.37;101783.75;3189208;38;130757;-74
2021/08/21 11:57:01;;;;;;;0.90;0.90;;;31.30;71.00;;;35.65;53.57;101772.06;3187917;30;132279;-74
2021/08/21 12:00:21;;;;;;;1.08;0.95;;;31.30;71.20;;;35.71;53.59;101773.84;3189566;30;131118;-74
2021/08/21 12:03:34;;;;;;;1.38;0.73;;;31.40;71.20;;;35.79;53.44;101763.22;3189874;38;131461;-73
2021/08/21 12:06:39;;;;;;;0.50;0.35;;;31.40;71.00;;;35.57;53.69;101771.50;3189607;30;130196;-73
2021/08/21 12:10:00;;;;;;;8.68;1.65;;;31.40;70.90;;;35.33;53.68;101772.28;3189829;38;130317;-73
2021/08/21 12:13:22;;;;;;;1.10;0.52;;;31.20;70.70;;;35.39;53.92;101765.69;3189904;30;130261;-73
2021/08/21 12:16:34;;;;;;;2.42;0.77;;;31.20;71.20;;;35.74;53.01;101766.59;3189096;38;129981;-74
2021/08/21 12:19:40;;;;;;;1.48;1.02;;;31.20;71.10;;;35.84;52.51;101759.88;3189383;30;131164;-74
2021/08/21 12:22:47;;;;;;;1.75;1.10;;;31.30;70.90;;;35.74;53.08;101755.44;3187997;30;130139;-74
2021/08/21 12:25:59;;;;;;;0.80;0.75;;;31.40;71.00;;;35.40;53.69;101758.88;3188388;30;130090;-74
2021/08/21 12:29:21;;;;;;;3.95;1.38;;;31.30;70.80;;;34.77;54.69;101749.66;3187148;30;130965;-74
2021/08/21 12:32:32;;;;;;;0.13;0.13;;;31.00;70.60;;;34.21;55.21;101756.00;3193301;38;129860;-74
2021/08/21 12:35:39;;;;;;;0.73;0.52;;;30.70;70.80;;;33.73;56.56;101752.47;3191440;38;130422;-74
2021/08/21 12:39:10;;;;;;;0.93;0.52;;;30.40;71.30;;;33.90;55.56;101759.56;3188194;30;130630;-74
2021/08/21 12:42:23;;;;;;;0.77;0.68;;;30.20;71.10;;;33.75;55.54;101755.59;3187310;38;129886;-74
2021/08/21 12:45:29;;;;;;;0.63;0.40;;;30.10;70.80;;;33.51;55.59;101751.38;3188794;30;131310;-75
2021/08/21 12:48:37;;;;;;;1.73;1.15;;;29.90;71.30;;;33.57;55.78;101753.22;3186455;30;130119;-75
2021/08/21 12:51:45;;;;;;;0.47;0.47;;;29.90;71.30;;;33.52;55.41;101741.81;3188000;38;130884;-75
2021/08/21 12:55:03;;;;;;;0.52;0.52;;;29.90;71.40;;;33.71;55.08;101736.19;3187112;38;130823;-75
2021/08/21 12:58:13;;;;;;;0.88;0.70;;;29.90;71.20;;;33.73;55.21;101727.44;3186580;30;129747;-72
2021/08/21 13:01:19;;;;;;;4.70;0.90;;;29.90;71.10;;;33.79;54.83;101728.47;3190277;30;129735;-74